Time;durP1;ratioP1;P1;durP2;ratioP2;P2;SDS_P1;SDS_P2;PMS_P1;PMS_P2;Temp;Humidity;BMP_temperature;BMP_pressure;BME280_temperature;BME280_humidity;BME280_pressure;Samples;Min_cycle;Max_cycle;Signal;HPM_P1;HPM_P2
2021/12/20 00:01:29;;;;;;;2.80;2.00;;;;;;;3.33;66.93;99869.52;105072;1285;72033;-85
2021/12/20 00:03:58;;;;;;;3.10;2.00;;;;;;;3.20;68.77;99883.34;105045;1281;60611;-76
2021/12/20 00:06:27;;;;;;;4.10;2.50;;;;;;;3.09;70.47;99871.19;104834;1284;62266;-84
2021/12/20 00:08:56;;;;;;;3.70;2.30;;;;;;;2.97;71.78;99870.16;104889;1285;73553;-82
2021/12/20 00:11:25;;;;;;;4.10;2.30;;;;;;;2.87;72.42;99867.75;104882;1285;73280;-81
2021/12/20 00:13:54;;;;;;;3.90;2.30;;;;;;;2.78;72.82;99866.68;104875;1287;69167;-83
2021/12/20 00:16:23;;;;;;;3.50;2.00;;;;;;;2.72;72.97;99869.08;104946;1283;70197;-83
2021/12/20 00:18:52;;;;;;;3.40;2.20;;;;;;;2.68;73.94;99873.58;104964;1284;60610;-80
2021/12/20 00:21:21;;;;;;;3.90;2.20;;;;;;;2.63;74.02;99873.48;104944;1285;62416;-78
2021/12/20 00:23:50;;;;;;;4.50;2.20;;;;;;;2.55;74.55;99871.34;104858;1285;73135;-79
2021/12/20 00:26:18;;;;;;;4.60;2.50;;;;;;;2.59;74.12;99883.51;104658;1285;72350;-79
2021/12/20 00:28:48;;;;;;;3.90;2.30;;;;;;;2.60;74.77;99890.35;104933;1284;70622;-77
2021/12/20 00:31:17;;;;;;;4.40;2.40;;;;;;;2.64;75.16;99891.84;104998;1284;73945;-77
2021/12/20 00:33:46;;;;;;;3.60;2.10;;;;;;;2.63;75.30;99900.32;104922;1284;62057;-76
2021/12/20 00:36:21;;;;;;;4.30;2.80;;;;;;;2.67;75.04;99909.73;105049;1281;60162;-78
2021/12/20 00:41:37;;;;;;;3.10;2.00;;;;;;;2.71;75.39;99915.88;105127;1282;73119;-79
2021/12/20 00:44:06;;;;;;;3.00;2.00;;;;;;;2.76;75.36;99912.52;105127;1283;71605;-79
2021/12/20 00:46:54;;;;;;;3.60;2.30;;;;;;;2.78;75.70;99916.90;105075;1278;71943;-84
2021/12/20 00:49:23;;;;;;;3.80;2.40;;;;;;;2.78;75.73;99923.45;105091;1281;58968;-84
2021/12/20 00:51:51;;;;;;;3.70;2.30;;;;;;;2.77;76.36;99929.83;105135;1283;60796;-83
2021/12/20 00:54:20;;;;;;;3.60;2.40;;;;;;;2.82;76.70;99932.17;104887;1283;73786;-84
2021/12/20 00:56:49;;;;;;;3.50;2.10;;;;;;;2.82;76.92;99940.73;104944;1279;73032;-84
2021/12/20 00:59:18;;;;;;;2.90;1.40;;;;;;;2.80;77.34;99941.88;105134;1278;69136;-83
2021/12/20 01:01:47;;;;;;;2.30;1.50;;;;;;;2.82;77.80;99953.84;104980;1283;71660;-81
2021/12/20 01:04:16;;;;;;;1.60;1.20;;;;;;;2.81;78.19;99955.63;105081;1278;59693;-81
2021/12/20 01:06:45;;;;;;;1.90;1.40;;;;;;;2.79;78.27;99949.70;105035;1279;61407;-79
2021/12/20 01:09:14;;;;;;;1.90;1.30;;;;;;;2.76;77.87;99952.77;104933;1283;72035;-81
2021/12/20 01:11:49;;;;;;;2.50;1.60;;;;;;;2.72;77.56;99953.30;105104;1281;69688;-81
2021/12/20 01:14:24;;;;;;;2.50;1.60;;;;;;;2.62;78.03;99954.70;105105;1278;68052;-82
2021/12/20 01:16:55;;;;;;;2.40;1.40;;;;;;;2.55;78.40;99963.98;105095;1282;73354;-81
2021/12/20 01:19:25;;;;;;;1.50;1.20;;;;;;;2.55;78.37;99960.06;105983;1279;63192;-84
2021/12/20 01:21:53;;;;;;;2.40;1.10;;;;;;;2.56;78.65;99966.55;105439;1278;62501;-84
2021/12/20 01:24:22;;;;;;;1.90;1.50;;;;;;;2.56;78.35;99952.29;105074;1281;74528;-83
2021/12/20 01:26:51;;;;;;;1.40;0.90;;;;;;;2.47;78.88;99961.63;104922;1283;72655;-82
2021/12/20 01:29:20;;;;;;;1.40;1.10;;;;;;;2.49;78.58;99962.73;105075;1278;70916;-81
2021/12/20 01:31:50;;;;;;;2.30;1.20;;;;;;;2.45;78.52;99970.52;105045;1283;72985;-85
2021/12/20 01:34:19;;;;;;;1.50;1.30;;;;;;;2.36;78.65;99963.38;105147;1279;59904;-81
2021/12/20 01:36:48;;;;;;;1.30;1.20;;;;;;;2.26;79.21;99960.98;104932;1281;62079;-82
2021/12/20 01:39:17;;;;;;;1.70;1.20;;;;;;;2.21;79.72;99963.45;105167;1279;70623;-83
2021/12/20 01:41:46;;;;;;;2.00;1.30;;;;;;;2.22;79.68;99959.64;105164;1279;70239;-85
2021/12/20 01:44:15;;;;;;;1.40;1.20;;;;;;;2.16;79.77;99961.68;105112;1282;69146;-84
2021/12/20 01:46:44;;;;;;;1.40;1.10;;;;;;;2.08;79.81;99959.64;105205;1278;71405;-80
2021/12/20 01:49:16;;;;;;;2.30;1.20;;;;;;;2.07;79.32;99965.52;105185;1283;60963;-84
2021/12/20 01:52:02;;;;;;;1.70;1.20;;;;;;;2.00;79.65;99967.28;105346;1279;61196;-86
2021/12/20 01:54:31;;;;;;;1.40;1.10;;;;;;;1.99;79.83;99974.16;105195;1281;73168;-88
2021/12/20 01:57:00;;;;;;;1.50;1.20;;;;;;;1.99;79.86;99980.86;105340;1278;70902;-86
2021/12/20 01:59:29;;;;;;;2.00;1.10;;;;;;;1.84;80.76;99984.15;105254;1282;70474;-83
2021/12/20 02:01:58;;;;;;;2.20;1.30;;;;;;;1.82;80.81;99978.77;105013;1280;74083;-90
2021/12/20 02:04:27;;;;;;;2.10;1.50;;;;;;;1.81;80.62;99986.37;104957;1282;62407;-86
2021/12/20 02:06:57;;;;;;;2.50;1.70;;;;;;;1.79;81.10;99984.41;105310;1281;61803;-88
2021/12/20 02:09:26;;;;;;;2.00;1.70;;;;;;;1.76;81.24;99986.25;105069;1282;70786;-82
2021/12/20 02:11:55;;;;;;;1.90;1.60;;;;;;;1.78;80.66;99992.50;104981;1281;71783;-82
2021/12/20 02:14:24;;;;;;;2.90;1.70;;;;;;;1.81;80.87;99991.36;105052;1280;70424;-82
2021/12/20 02:16:53;;;;;;;3.60;2.40;;;;;;;1.81;81.01;99991.84;105013;1281;72324;-81
2021/12/20 02:19:22;;;;;;;3.70;2.10;;;;;;;1.80;81.14;99988.63;105174;1278;60586;-82
2021/12/20 02:21:51;;;;;;;2.40;1.70;;;;;;;1.79;81.10;99996.59;105144;1278;59810;-82
2021/12/20 02:24:20;;;;;;;3.30;2.00;;;;;;;1.78;80.65;99994.96;105116;1283;70206;-83
2021/12/20 02:26:50;;;;;;;2.60;2.00;;;;;;;1.76;80.28;99998.77;105060;1281;70025;-88
2021/12/20 02:29:26;;;;;;;3.00;2.20;;;;;;;1.70;80.60;100006.98;105211;1278;69836;-82
2021/12/20 02:37:33;;;;;;;2.30;1.50;;;;;;;1.60;79.78;100012.27;105098;1281;62087;-81
2021/12/20 02:40:03;;;;;;;2.30;1.80;;;;;;;1.56;79.66;100013.08;105104;1281;71629;-81
2021/12/20 02:42:41;;;;;;;2.60;1.30;;;;;;;1.50;79.24;100002.23;105196;1282;69678;-81
2021/12/20 02:45:15;;;;;;;2.30;1.60;;;;;;;1.47;79.46;100015.25;105131;1279;72660;-81
2021/12/20 02:47:45;;;;;;;2.30;1.40;;;;;;;1.43;79.31;100020.22;105133;1278;73822;-94
2021/12/20 02:50:16;;;;;;;3.00;1.60;;;;;;;1.39;79.10;100015.80;105199;1282;58914;-93
2021/12/20 02:52:45;;;;;;;3.60;1.70;;;;;;;1.28;79.50;100011.17;105253;1281;59396;-81
2021/12/20 02:55:14;;;;;;;3.70;1.90;;;;;;;1.24;79.66;100009.77;105015;1278;73295;-81
2021/12/20 02:57:43;;;;;;;2.10;1.40;;;;;;;1.22;79.48;100014.83;105050;1282;72215;-81
2021/12/20 03:00:12;;;;;;;4.50;1.90;;;;;;;1.17;79.26;100021.43;105045;1279;71405;-81
2021/12/20 03:02:41;;;;;;;4.00;1.80;;;;;;;1.09;79.36;100030.68;105023;1282;72410;-83
2021/12/20 03:05:11;;;;;;;2.30;1.60;;;;;;;1.03;79.70;100031.13;104933;1282;61543;-82
2021/12/20 03:07:49;;;;;;;3.00;1.80;;;;;;;1.02;79.52;100035.96;105949;1282;59567;-82
2021/12/20 03:10:19;;;;;;;3.10;1.60;;;;;;;0.97;79.46;100036.34;106266;1278;71137;-81
2021/12/20 03:12:53;;;;;;;1.50;1.10;;;;;;;0.97;79.46;100040.48;106335;1282;69673;-81
2021/12/20 03:15:25;;;;;;;2.30;1.60;;;;;;;0.97;79.39;100038.77;105250;1281;67978;-82
2021/12/20 03:17:57;;;;;;;2.10;1.50;;;;;;;0.98;79.42;100045.06;105122;1280;72177;-83
2021/12/20 03:20:26;;;;;;;2.00;1.30;;;;;;;0.97;79.54;100054.55;105171;1278;60975;-85
2021/12/20 03:22:55;;;;;;;3.50;1.40;;;;;;;0.96;79.45;100053.02;105168;1281;59783;-84
2021/12/20 03:25:24;;;;;;;2.40;1.70;;;;;;;0.95;79.46;100059.27;105137;1281;70424;-89
2021/12/20 03:27:53;;;;;;;1.70;1.20;;;;;;;0.94;79.59;100052.95;105219;1282;69988;-90
2021/12/20 03:30:22;;;;;;;2.70;1.50;;;;;;;0.93;79.58;100060.17;104917;1280;69486;-89
2021/12/20 03:32:51;;;;;;;1.60;1.20;;;;;;;0.93;79.72;100055.25;105022;1281;72468;-88
2021/12/20 03:35:20;;;;;;;4.50;1.30;;;;;;;0.90;79.76;100061.36;105019;1278;59682;-89
2021/12/20 03:37:49;;;;;;;3.00;1.20;;;;;;;0.88;79.82;100063.51;104955;1281;60950;-86
2021/12/20 03:40:18;;;;;;;4.10;1.90;;;;;;;0.87;79.94;100061.13;105022;1278;74754;-88
2021/12/20 03:42:47;;;;;;;2.60;1.50;;;;;;;0.86;79.88;100061.52;105131;1278;70701;-85
2021/12/20 03:45:16;;;;;;;3.80;1.70;;;;;;;0.86;79.69;100066.33;104902;1283;68923;-85
2021/12/20 03:47:45;;;;;;;1.80;1.30;;;;;;;0.85;79.86;100070.84;104813;1284;72320;-86
2021/12/20 03:50:14;;;;;;;5.30;1.40;;;;;;;0.86;80.04;100071.66;105036;1278;61658;-85
2021/12/20 03:52:44;;;;;;;1.50;1.00;;;;;;;0.88;79.77;100066.94;105019;1281;61152;-86
2021/12/20 03:55:13;;;;;;;2.90;1.70;;;;;;;0.86;79.80;100068.55;105132;1280;72824;-87
2021/12/20 03:57:42;;;;;;;2.50;1.60;;;;;;;0.86;79.72;100072.18;105156;1279;71379;-87
2021/12/20 04:00:13;;;;;;;1.80;1.70;;;;;;;0.79;79.77;100064.39;104932;1284;70671;-89
2021/12/20 04:02:45;;;;;;;1.90;1.30;;;;;;;0.77;79.84;100064.14;105321;1276;70244;-86
2021/12/20 04:05:15;;;;;;;2.30;1.30;;;;;;;0.76;79.91;100066.89;105209;1279;61010;-83
2021/12/20 04:07:44;;;;;;;2.30;1.60;;;;;;;0.77;79.84;100070.65;105260;1281;59401;-86
2021/12/20 04:10:12;;;;;;;3.00;1.70;;;;;;;0.77;79.76;100070.80;105097;1279;71724;-83
2021/12/20 04:12:42;;;;;;;2.40;1.60;;;;;;;0.75;79.78;100074.49;105430;1278;72141;-85
2021/12/20 04:15:11;;;;;;;2.60;1.60;;;;;;;0.76;79.84;100076.84;105627;1280;71436;-76
2021/12/20 04:17:40;;;;;;;2.90;1.70;;;;;;;0.76;79.78;100073.76;106376;1278;73823;-83
2021/12/20 04:20:09;;;;;;;2.50;1.80;;;;;;;0.78;79.98;100074.02;105420;1278;60408;-88
2021/12/20 04:22:39;;;;;;;1.70;1.20;;;;;;;0.77;79.87;100075.44;105232;1281;60212;-84
2021/12/20 04:25:09;;;;;;;2.00;1.50;;;;;;;0.74;79.81;100082.05;105695;1283;72722;-90
2021/12/20 04:27:38;;;;;;;2.20;1.60;;;;;;;0.72;79.82;100084.39;105397;1279;72525;-90
2021/12/20 04:30:10;;;;;;;2.80;1.80;;;;;;;0.72;79.73;100081.79;105219;1283;70540;-92
2021/12/20 04:32:42;;;;;;;2.20;1.30;;;;;;;0.69;79.80;100077.66;105675;1281;73065;-92
2021/12/20 04:35:13;;;;;;;2.60;2.30;;;;;;;0.66;79.77;100075.40;105576;1284;59138;-83
2021/12/20 04:37:44;;;;;;;4.00;2.20;;;;;;;0.60;80.02;100073.93;106117;1281;61056;-88
2021/12/20 04:40:19;;;;;;;2.90;1.80;;;;;;;0.59;80.14;100080.13;105899;1283;72386;-89
2021/12/20 04:43:09;;;;;;;4.90;2.60;;;;;;;0.57;80.13;100085.17;106598;1283;70943;-85
2021/12/20 04:45:39;;;;;;;3.80;2.40;;;;;;;0.56;80.17;100095.35;106940;1282;70260;-91
2021/12/20 04:48:09;;;;;;;4.60;2.50;;;;;;;0.53;80.22;100097.86;106514;1281;73048;-91
2021/12/20 04:50:38;;;;;;;4.20;2.00;;;;;;;0.51;80.24;100097.74;106283;1278;59840;-90
2021/12/20 04:53:08;;;;;;;4.10;2.40;;;;;;;0.52;79.86;100104.76;105317;1279;61674;-88
2021/12/20 04:55:37;;;;;;;4.70;2.40;;;;;;;0.47;80.03;100107.33;105328;1281;72791;-90
2021/12/20 04:58:06;;;;;;;4.30;2.20;;;;;;;0.45;79.87;100106.95;105387;1279;72972;-90
2021/12/20 05:00:36;;;;;;;5.80;2.60;;;;;;;0.40;80.32;100111.08;105343;1281;71214;-91
2021/12/20 05:03:05;;;;;;;4.50;2.50;;;;;;;0.40;81.10;100110.70;105273;1278;73032;-88
2021/12/20 05:05:34;;;;;;;5.70;3.10;;;;;;;0.46;80.94;100110.30;105320;1282;62021;-88
2021/12/20 05:08:04;;;;;;;5.20;2.70;;;;;;;0.42;80.57;100112.51;105262;1281;59034;-88
2021/12/20 05:10:34;;;;;;;3.80;2.50;;;;;;;0.40;80.40;100116.21;105072;1284;71145;-88
2021/12/20 05:13:06;;;;;;;3.40;2.20;;;;;;;0.32;80.09;100119.27;105157;1281;72227;-89
2021/12/20 05:15:38;;;;;;;4.00;2.50;;;;;;;0.23;79.65;100122.33;105121;1281;70453;-90
2021/12/20 05:18:10;;;;;;;7.90;3.90;;;;;;;0.19;79.98;100124.92;105228;1281;73392;-89
2021/12/20 05:20:38;;;;;;;4.60;3.10;;;;;;;0.15;80.19;100122.33;105740;1278;62225;-94
2021/12/20 05:23:08;;;;;;;4.10;2.20;;;;;;;0.09;80.27;100120.65;105210;1282;60777;-92
2021/12/20 05:25:37;;;;;;;5.40;2.80;;;;;;;0.04;80.13;100114.70;105604;1281;71756;-89
2021/12/20 05:28:08;;;;;;;3.90;2.40;;;;;;;-0.02;80.11;100115.61;105927;1282;69688;-89
2021/12/20 05:30:37;;;;;;;7.80;4.70;;;;;;;-0.03;80.47;100116.68;106409;1278;69126;-92
2021/12/20 05:33:06;;;;;;;6.70;4.50;;;;;;;-0.03;80.77;100120.60;105500;1281;70156;-90
2021/12/20 05:35:35;;;;;;;9.00;4.90;;;;;;;-0.09;81.09;100121.19;105232;1281;59793;-88
2021/12/20 05:38:05;;;;;;;7.70;4.80;;;;;;;-0.13;81.13;100124.08;105353;1278;60906;-90
2021/12/20 05:40:35;;;;;;;11.90;7.10;;;;;;;-0.16;81.37;100128.48;105081;1278;72091;-89
2021/12/20 05:43:04;;;;;;;6.70;4.90;;;;;;;-0.21;80.99;100123.54;105284;1281;70985;-89
2021/12/20 05:45:33;;;;;;;6.80;4.30;;;;;;;-0.31;81.42;100129.54;105458;1281;70989;-89
2021/12/20 05:48:03;;;;;;;9.10;4.60;;;;;;;-0.39;81.25;100135.31;105453;1282;72874;-90
2021/12/20 05:50:33;;;;;;;6.20;4.10;;;;;;;-0.49;81.39;100139.09;105598;1279;59780;-91
2021/12/20 05:53:02;;;;;;;9.80;4.90;;;;;;;-0.60;82.05;100141.69;105268;1279;61743;-87
2021/12/20 05:55:30;;;;;;;7.30;4.10;;;;;;;-0.65;81.79;100139.33;105253;1278;72310;-88
2021/12/20 05:57:59;;;;;;;6.70;4.30;;;;;;;-0.60;82.08;100145.12;105329;1278;72475;-88
2021/12/20 06:00:28;;;;;;;4.70;2.50;;;;;;;-0.54;82.28;100152.60;106669;1282;69326;-91
2021/12/20 06:02:57;;;;;;;7.50;3.90;;;;;;;-0.49;81.74;100154.33;105951;1278;72367;-93
2021/12/20 06:05:27;;;;;;;7.60;4.60;;;;;;;-0.47;81.46;100155.98;105987;1278;62196;-87
2021/12/20 06:07:57;;;;;;;6.10;3.00;;;;;;;-0.43;81.95;100158.89;105239;1278;60380;-87
2021/12/20 06:10:26;;;;;;;8.00;3.80;;;;;;;-0.39;81.78;100154.12;105377;1278;72495;-90
2021/12/20 06:12:55;;;;;;;6.00;4.00;;;;;;;-0.33;81.54;100154.27;105394;1278;70459;-90
2021/12/20 06:15:24;;;;;;;7.10;4.30;;;;;;;-0.31;81.06;100158.79;105658;1278;68007;-86
2021/12/20 06:17:53;;;;;;;6.90;4.10;;;;;;;-0.28;81.14;100168.96;105422;1278;73380;-87
2021/12/20 06:20:21;;;;;;;6.90;3.90;;;;;;;-0.29;80.83;100168.63;105201;1282;60134;-85
2021/12/20 06:22:51;;;;;;;7.00;3.50;;;;;;;-0.26;80.82;100165.99;105225;1278;60963;-86
2021/12/20 06:25:20;;;;;;;7.20;3.90;;;;;;;-0.23;80.80;100168.80;105216;1278;71504;-86
2021/12/20 06:27:49;;;;;;;7.60;3.80;;;;;;;-0.20;80.85;100173.46;106226;1269;69655;-82
2021/12/20 06:30:18;;;;;;;8.80;4.50;;;;;;;-0.24;80.59;100175.48;107294;1280;68207;-75
2021/12/20 06:33:02;;;;;;;10.90;5.90;;;;;;;-0.24;80.84;100172.41;107693;1269;71532;31
2021/12/20 06:35:35;;;;;;;6.80;3.80;;;;;;;-0.26;80.89;100173.84;105972;1274;468604;-91
2021/12/20 06:38:06;;;;;;;6.10;3.60;;;;;;;-0.28;80.95;100173.76;105255;1281;62151;-92
2021/12/20 06:40:35;;;;;;;7.10;3.30;;;;;;;-0.35;80.69;100171.44;105304;1285;73625;-90
2021/12/20 06:43:04;;;;;;;11.60;5.20;;;;;;;-0.34;80.49;100175.16;104871;1285;70833;-88
2021/12/20 06:45:34;;;;;;;9.80;5.30;;;;;;;-0.36;80.42;100175.21;105463;1282;67965;-87
2021/12/20 06:48:05;;;;;;;8.40;4.20;;;;;;;-0.38;80.10;100178.90;105536;1285;74428;-91
2021/12/20 06:50:33;;;;;;;4.30;2.00;;;;;;;-0.40;80.09;100182.38;106547;1286;60959;-91
2021/12/20 06:53:03;;;;;;;7.80;3.60;;;;;;;-0.36;79.99;100179.52;106758;1285;61997;-94
2021/12/20 06:55:33;;;;;;;9.30;4.70;;;;;;;-0.34;80.20;100180.13;106852;1271;72469;-91
2021/12/20 06:58:03;;;;;;;10.60;5.60;;;;;;;-0.35;79.84;100180.34;105997;1281;72495;-93
2021/12/20 07:00:32;;;;;;;8.40;5.20;;;;;;;-0.31;80.14;100185.48;105077;1283;70244;-91
2021/12/20 07:03:01;;;;;;;9.30;4.80;;;;;;;-0.31;79.71;100193.52;105541;1280;71725;-92
2021/12/20 07:05:30;;;;;;;7.80;4.20;;;;;;;-0.27;80.06;100193.39;105734;1281;60471;-92
2021/12/20 07:08:02;;;;;;;10.00;5.00;;;;;;;-0.24;79.93;100196.55;106147;1283;60821;-91
2021/12/20 07:10:31;;;;;;;11.20;5.70;;;;;;;-0.17;80.17;100202.27;106151;1281;71427;-95
2021/12/20 07:13:00;;;;;;;12.90;5.80;;;;;;;-0.12;79.96;100202.27;106355;1282;71122;-94
2021/12/20 07:15:31;;;;;;;8.00;4.70;;;;;;;-0.07;79.86;100203.11;106638;1284;68067;-83
2021/12/20 07:18:00;;;;;;;7.00;3.80;;;;;;;-0.03;79.77;100208.61;106450;1281;71230;-92
2021/12/20 07:20:29;;;;;;;6.10;3.20;;;;;;;0.07;79.13;100207.56;106324;1271;58907;-94
2021/12/20 07:22:58;;;;;;;8.00;4.00;;;;;;;0.20;79.19;100204.64;106741;1271;58992;-93
2021/12/20 07:25:27;;;;;;;8.20;4.00;;;;;;;0.37;79.42;100210.53;106184;1272;73772;-88
2021/12/20 07:27:55;;;;;;;10.60;4.40;;;;;;;0.52;78.99;100213.20;106119;1285;71939;-91
2021/12/20 07:30:24;;;;;;;7.90;4.30;;;;;;;0.63;77.92;100218.62;106172;1284;68865;-76
2021/12/20 07:32:53;;;;;;;8.70;3.90;;;;;;;0.74;76.60;100218.70;105838;1286;72138;-83
2021/12/20 07:35:23;;;;;;;7.40;4.10;;;;;;;0.84;76.01;100220.52;106113;1285;59836;-83
2021/12/20 07:37:54;;;;;;;5.90;4.20;;;;;;;0.89;76.25;100219.12;105471;1285;60169;-82
2021/12/20 07:40:23;;;;;;;8.30;4.80;;;;;;;0.96;76.51;100221.58;105187;1285;71770;-87
2021/12/20 07:42:52;;;;;;;6.10;3.60;;;;;;;0.99;75.24;100218.55;105132;1285;69950;-87
2021/12/20 07:45:21;;;;;;;5.80;3.50;;;;;;;1.02;74.67;100215.15;104872;1285;70165;-83
2021/12/20 07:47:50;;;;;;;7.40;4.40;;;;;;;1.06;74.40;100214.14;105190;1285;74881;-78
2021/12/20 07:50:20;;;;;;;5.80;4.10;;;;;;;1.18;73.80;100215.02;105061;1285;60220;-89
2021/12/20 07:52:49;;;;;;;6.50;3.20;;;;;;;1.22;73.82;100221.91;105135;1282;61710;-86
2021/12/20 07:55:18;;;;;;;6.40;3.60;;;;;;;1.27;73.69;100218.60;105049;1285;73582;-87
2021/12/20 07:57:47;;;;;;;8.30;4.40;;;;;;;1.33;73.00;100224.53;105125;1285;73090;-85
2021/12/20 08:00:16;;;;;;;5.80;3.50;;;;;;;1.43;73.21;100218.63;105224;1285;70006;-83
2021/12/20 08:02:45;;;;;;;8.30;4.80;;;;;;;1.47;73.22;100221.55;105314;1285;74385;-87
2021/12/20 08:05:15;;;;;;;6.90;4.20;;;;;;;1.50;72.69;100216.76;106079;1285;60391;-89
2021/12/20 08:07:45;;;;;;;6.20;4.10;;;;;;;1.55;72.87;100224.63;106167;1286;61007;-85
2021/12/20 08:10:14;;;;;;;9.60;4.40;;;;;;;1.61;72.55;100233.63;105180;1281;73580;-86
2021/12/20 08:12:45;;;;;;;9.40;3.90;;;;;;;1.65;72.57;100228.83;104988;1283;70405;-87
2021/12/20 08:15:14;;;;;;;6.90;3.70;;;;;;;1.71;71.68;100222.05;105057;1284;69117;-87
2021/12/20 08:17:43;;;;;;;7.80;4.60;;;;;;;1.75;71.04;100221.84;104931;1282;73051;-86
2021/12/20 08:20:12;;;;;;;8.90;4.80;;;;;;;1.81;70.98;100234.48;104929;1282;60929;-90
2021/12/20 08:22:45;;;;;;;;;;;;;;;1.89;70.32;100230.89;105076;1282;59394;-88
2021/12/20 08:25:14;;;;;;;9.60;4.90;;;;;;;1.90;70.21;100227.55;105095;1282;72913;-88
2021/12/20 08:27:43;;;;;;;7.80;4.70;;;;;;;1.97;69.71;100244.94;105034;1285;73180;-90
2021/12/20 08:30:12;;;;;;;7.60;5.00;;;;;;;1.98;69.54;100237.88;104956;1285;71098;-90
2021/12/20 08:32:41;;;;;;;9.40;5.50;;;;;;;2.03;69.55;100235.23;105178;1285;73935;-88
2021/12/20 08:35:10;;;;;;;9.60;5.70;;;;;;;2.07;69.43;100238.48;105495;1284;61827;-88
2021/12/20 08:37:40;;;;;;;8.00;4.20;;;;;;;2.05;69.01;100240.61;105362;1285;59813;-91
2021/12/20 08:40:11;;;;;;;6.10;3.90;;;;;;;2.15;68.88;100236.06;104808;1285;74121;-87
2021/12/20 08:42:41;;;;;;;7.50;4.10;;;;;;;2.14;68.64;100243.65;105217;1285;70795;-90
2021/12/20 08:45:11;;;;;;;5.40;3.30;;;;;;;2.20;68.76;100237.91;105076;1281;68084;-89
2021/12/20 08:47:40;;;;;;;7.20;4.40;;;;;;;2.27;68.51;100234.63;104883;1285;73704;-86
2021/12/20 08:50:15;;;;;;;7.20;5.00;;;;;;;2.31;68.35;100240.83;104948;1285;59414;-86
2021/12/20 08:52:44;;;;;;;4.40;3.00;;;;;;;2.37;67.63;100250.36;105075;1285;59609;-90
2021/12/20 08:55:13;;;;;;;10.80;4.00;;;;;;;2.38;67.31;100238.95;105279;1282;70936;-85
2021/12/20 08:57:42;;;;;;;5.30;3.30;;;;;;;2.40;67.15;100246.45;105393;1281;70771;-89
2021/12/20 09:00:20;;;;;;;7.50;4.50;;;;;;;2.45;67.37;100244.52;105072;1285;67972;-91
2021/12/20 09:02:49;;;;;;;5.80;3.50;;;;;;;2.53;66.82;100233.27;105485;1284;75023;-86
2021/12/20 09:05:19;;;;;;;7.00;4.00;;;;;;;2.56;66.32;100244.70;105728;1285;59501;-87
2021/12/20 09:07:47;;;;;;;4.30;3.20;;;;;;;2.57;65.86;100241.01;105222;1282;60011;-85
2021/12/20 09:10:17;;;;;;;7.20;3.40;;;;;;;2.63;65.53;100241.75;105216;1283;74480;-82
2021/12/20 09:12:46;;;;;;;4.90;3.30;;;;;;;2.71;65.38;100232.95;105164;1282;71705;-85
2021/12/20 09:15:16;;;;;;;6.60;4.50;;;;;;;2.79;65.52;100232.77;105367;1283;69321;-87
2021/12/20 09:17:48;;;;;;;6.20;3.90;;;;;;;3.06;64.65;100233.34;104897;1286;73427;-82
2021/12/20 09:20:19;;;;;;;4.50;2.80;;;;;;;3.25;63.99;100227.23;105102;1285;60550;-78
2021/12/20 09:22:52;;;;;;;5.00;2.80;;;;;;;3.18;62.45;100229.13;105170;1282;61788;-84
2021/12/20 09:25:22;;;;;;;;;;;;;;;3.20;63.12;100238.17;105087;1282;72210;-82
2021/12/20 09:27:53;;;;;;;7.20;3.60;;;;;;;3.13;63.31;100239.54;105081;1285;70522;-90
2021/12/20 09:30:23;;;;;;;6.20;3.40;;;;;;;3.10;64.37;100239.50;105057;1286;69862;-81
2021/12/20 09:32:52;;;;;;;6.00;3.40;;;;;;;3.07;64.35;100243.98;105272;1282;73922;-91
2021/12/20 09:35:21;;;;;;;7.50;4.10;;;;;;;2.93;64.47;100261.34;105094;1282;58991;-91
2021/12/20 09:37:51;;;;;;;5.00;3.00;;;;;;;2.84;64.66;100256.59;105022;1285;60783;-84
2021/12/20 09:40:31;;;;;;;5.60;3.40;;;;;;;2.84;64.53;100259.67;104877;1286;72345;-80
2021/12/20 09:43:03;;;;;;;5.30;3.50;;;;;;;2.83;64.36;100256.96;104857;1286;70309;-89
2021/12/20 09:45:32;;;;;;;6.70;3.90;;;;;;;2.77;64.84;100249.70;104914;1286;69774;-82
2021/12/20 09:48:01;;;;;;;6.20;3.80;;;;;;;2.77;65.32;100249.36;104757;1282;73474;-87
2021/12/20 09:50:30;;;;;;;6.70;3.60;;;;;;;2.75;66.11;100251.00;104900;1285;59934;-66
2021/12/20 09:53:04;;;;;;;4.70;3.60;;;;;;;2.91;66.37;100253.47;104738;1285;61756;-66
2021/12/20 09:55:33;;;;;;;6.20;4.40;;;;;;;3.05;65.54;100253.17;104720;1285;73510;-69
2021/12/20 09:58:03;;;;;;;6.10;4.20;;;;;;;3.05;65.35;100246.29;104707;1285;72745;-69
2021/12/20 10:00:33;;;;;;;6.70;3.80;;;;;;;3.09;65.09;100244.02;104872;1284;69262;-69
2021/12/20 10:03:02;;;;;;;9.00;4.10;;;;;;;3.18;65.28;100245.66;104785;1285;72042;-84
2021/12/20 10:05:32;;;;;;;9.00;4.80;;;;;;;3.10;65.12;100242.61;104696;1287;59020;-77
2021/12/20 10:08:11;;;;;;;6.80;4.10;;;;;;;3.21;65.99;100234.69;104714;1285;61353;-82
2021/12/20 10:10:49;;;;;;;7.10;4.40;;;;;;;3.30;65.55;100241.80;105050;1285;73616;-80
2021/12/20 10:13:35;;;;;;;6.70;4.70;;;;;;;3.33;65.69;100237.33;104644;1286;72715;-80
2021/12/20 10:16:18;;;;;;;9.20;4.90;;;;;;;3.31;65.32;100236.05;104738;1286;71108;-78
2021/12/20 10:18:47;;;;;;;;;;;;;;;3.25;64.14;100242.05;104664;1285;73282;-81
2021/12/20 10:21:16;;;;;;;5.30;3.10;;;;;;;3.19;63.33;100242.16;104775;1284;58978;-79
2021/12/20 10:23:48;;;;;;;5.90;3.30;;;;;;;3.22;63.72;100239.42;104704;1282;59015;-79
2021/12/20 10:26:21;;;;;;;9.20;4.30;;;;;;;3.19;63.83;100235.77;104597;1286;70998;-77
2021/12/20 10:28:52;;;;;;;6.60;4.20;;;;;;;3.09;64.49;100242.83;104648;1285;71397;-78
2021/12/20 10:31:24;;;;;;;8.10;4.10;;;;;;;3.12;63.97;100239.75;104724;1285;68787;-78
2021/12/20 10:33:59;;;;;;;6.90;4.40;;;;;;;3.12;64.44;100235.27;104783;1282;72381;-77
2021/12/20 10:36:31;;;;;;;7.30;3.90;;;;;;;3.16;64.82;100239.05;104706;1284;61246;-77
2021/12/20 10:39:01;;;;;;;7.10;3.50;;;;;;;3.30;64.18;100232.52;104588;1284;59706;-76
2021/12/20 10:41:35;;;;;;;6.90;3.60;;;;;;;3.33;63.65;100241.31;104693;1286;73780;-79
2021/12/20 10:44:20;;;;;;;5.60;3.60;;;;;;;3.29;63.61;100237.19;104734;1286;72776;-76
2021/12/20 10:46:52;;;;;;;7.60;3.70;;;;;;;3.26;63.63;100242.48;104835;1282;70553;-80
2021/12/20 10:49:29;;;;;;;5.00;3.00;;;;;;;3.26;63.02;100227.21;104726;1285;71955;-78
2021/12/20 10:51:58;;;;;;;5.80;3.70;;;;;;;3.35;63.42;100228.46;105084;1285;62231;-87
2021/12/20 10:54:31;;;;;;;7.90;4.50;;;;;;;3.44;63.47;100230.60;104755;1284;61073;-81
2021/12/20 10:57:05;;;;;;;7.70;3.50;;;;;;;3.42;63.97;100233.25;104696;1287;74694;-78
2021/12/20 10:59:36;;;;;;;6.90;4.20;;;;;;;3.53;62.89;100232.70;104848;1286;71915;-79
2021/12/20 11:05:36;;;;;;;5.80;3.10;;;;;;;3.41;62.53;100243.29;104402;1285;71382;-77
2021/12/20 11:11:14;;;;;;;4.90;3.10;;;;;;;3.58;61.00;100246.92;104794;1282;60076;-80
2021/12/20 11:13:43;;;;;;;7.50;3.70;;;;;;;3.52;60.63;100241.06;104861;1285;71045;-80
2021/12/20 11:16:35;;;;;;;5.70;4.00;;;;;;;3.43;60.17;100244.05;104786;1287;71864;-80
2021/12/20 11:19:11;;;;;;;6.30;3.40;;;;;;;3.37;60.22;100249.02;104870;1284;70625;-76
2021/12/20 11:22:02;;;;;;;5.80;3.60;;;;;;;3.37;60.81;100245.55;105036;1285;72774;-81
2021/12/20 11:25:02;;;;;;;6.90;4.10;;;;;;;3.38;60.51;100243.64;104893;1282;61083;-81
2021/12/20 11:27:36;;;;;;;7.40;4.30;;;;;;;3.26;62.15;100237.67;105011;1285;61745;-78
2021/12/20 11:30:11;;;;;;;7.60;4.30;;;;;;;3.33;61.65;100242.69;104981;1281;72241;-82
2021/12/20 11:32:40;;;;;;;7.20;4.50;;;;;;;3.39;61.81;100239.10;105089;1282;70427;-80
2021/12/20 11:35:15;;;;;;;6.30;3.60;;;;;;;3.44;60.87;100245.21;105011;1282;67978;-79
2021/12/20 11:37:45;;;;;;;5.20;2.70;;;;;;;3.39;61.01;100234.45;104762;1284;74901;-81
2021/12/20 11:40:16;;;;;;;5.80;3.10;;;;;;;3.46;60.67;100237.52;104939;1285;61571;-80
2021/12/20 11:42:45;;;;;;;6.70;4.00;;;;;;;3.52;60.37;100231.04;104689;1283;61311;-76
2021/12/20 11:45:15;;;;;;;4.60;2.90;;;;;;;3.60;61.07;100230.30;104545;1284;74102;-77
2021/12/20 11:47:54;;;;;;;6.10;3.40;;;;;;;3.64;60.08;100242.67;104649;1285;70854;-80
2021/12/20 11:50:35;;;;;;;5.20;2.50;;;;;;;3.65;59.70;100241.02;104668;1285;68009;-81
2021/12/20 11:53:15;;;;;;;3.60;2.40;;;;;;;3.69;59.31;100228.09;104378;1287;72570;-83
2021/12/20 11:55:54;;;;;;;5.30;2.90;;;;;;;3.64;58.55;100233.18;104504;1286;58996;-78
2021/12/20 11:58:25;;;;;;;5.20;2.50;;;;;;;3.67;58.51;100239.39;104868;1285;59101;-79